Gage, OK (73843)

5:17 AM CDT on July 24, 2016 (GMT -0500)
Barnes - Farm | | Change Station

Elev 2220 ft 36.28 °N, 99.80 °W | Updated 8 seconds ago

Clear
Clear
79.2 °F
Feels Like 81 °F
N
7.0
Wind Variable Wind from South
Gusts 7.0 mph

Today
High -- | Low -- °F
--% Chance of Precip.
Yesterday
High -- | Low -- °F
Precip. -- in
Pressure 29.85 in
Visibility 10.0 miles
Clouds Clear
Heat Index 81 °F
Dew Point 66 °F
Humidity 63%
Rainfall 0.00 in
Snow Depth Not available.
6:39 AM 8:50 PM
Waning Gibbous, 77% visible
METAR KGAG 240953Z AUTO 23006KT 10SM CLR 27/18 A2996 RMK AO2 SLP108 T02670178
Pressure 29.85 in
Visibility 10.0 miles
Clouds Clear
Heat Index 81 °F
Dew Point 66 °F
Humidity 63%
Rainfall 0.00 in
Snow Depth Not available.
6:39 AM 8:50 PM
Waning Gibbous, 77% visible
METAR KGAG 240953Z AUTO 23006KT 10SM CLR 27/18 A2996 RMK AO2 SLP108 T02670178

10-Day Weather Forecast

Almanac

Astronomy

Jul. 24, 2016 Rise Set
Actual Time
Civil Twilight
Nautical Twilight
Astronomical Twilight
Moon
Length of Visible Light
Length of Day
Tomorrow will be .
, % of the Moon is Illuminated

Today's Extremes

State Highs State Lows

Community

WunderPhotos

Upload Photos

1,927,040 photos uploaded!

WunderBlog® & News

Nearby

Air Quality

  Air Quality AQ Index Pollutant
Not available.

Snow Depth

Station Depth Elevation

Earthquake Activity

City Distance Mag. Time & Date
Minimum magnitude displayed is 2.5.

Coastal Water Temperatures

Place Temperature

Stations

Nearby Weather Stations

Station Location Temp. Windchill Dew Point Humidity Wind Precip. Elev Updated Type
                   

Watches & Warnings

There are currently no watches in effect.